Airfield :
LOGIN :

Register | Disclaimer

   EN    FR    IT 

 










Legend :    VFR   Marginal VFR   IFR   Intensive IFR   Very Intensive IFR
Visi :
Ceiling :
>= 8 km
>= 3000ft
5 to 8 km
1000 to 3000 ft
1500m to 5 km
500 to 1000 ft
800 to 1500m
200 to 500 ft
< 800m
< 200 ft
Symbols :   Thunderstorms  Fog  Heavy snow  Heavy precipitations  Wind > 20 kt
SIGMETs :     Misc.  Thunderstorms  Icing  Turbulence  Mountain Waves  Volcanic Ashes







- Airport Elevation : 357 ft
- IATA code : TUF
- Download approach charts


LFOT - Tours

CURRENT METAR :
  • 301630Z AUTO 20009KT 180V240 9999 SCT020 SCT025 BKN035 11/07 Q1000 TEMPO 26020G30KT 3000 -TSRA BKN012 BKN030CB

EXPIRED METARs :
  • 301600Z AUTO 20011KT 180V240 9999 BKN020 BKN094 BKN130 11/07 Q1001 TEMPO 25015G30KT 3000 -TSRA BKN014 BKN020CB
  • 301530Z AUTO 22012KT 9999 SCT020 BKN130 11/08 Q1000 TEMPO 25015G30KT 3000 -TSRA BKN014 BKN020CB
  • 301500Z AUTO 21011KT 180V240 9999 SCT016 BKN021 BKN045 11/08 Q1001 TEMPO 25020G40KT 2500 -TSGR BKN015CB
  • 301430Z AUTO 20013KT 160V230 9999 -RA BKN013/// BKN019/// BKN024/// ///CB 11/09 Q1001 TEMPO 25020G40KT 2500 -TSGR BKN015CB
  • 301400Z AUTO 20013G24KT 170V230 9999 RA FEW016/// BKN043/// OVC056/// ///TCU 11/09 Q1001 TEMPO 25020G40KT 2500 -TSGR BKN015CB

TAF TAF LFOT
Valid from the 30 at 12:00 until the 01 at 12:00 UTC


301100Z 3012/0112 12010KT CAVOK
BECMG 3012/3014 19012KT SCT035 BKN100
TEMPO 3012/3018 25015G30KT 3000 -TSRA BKN014 BKN020CB
PROB30
TEMPO 3014/3017 25020G40KT 2500 -TSGR BKN015CB
BECMG 3018/3020 20010KT
TEMPO 3018/0112 26020G30KT SHRA BKN012 BKN030CB
No reported NOTAMs for that airfield.
1 SIGMET reported for the Paris FIR (LFFF) :
 
Embedded thunderstorms
LFFF SIGMET 2 VALID 301500/301700 LFPW
LFFF PARIS FIR/UIR EMBD TS OBS WI N4645 E00230 - N4715 E00200 - N4745 E00200 - N4730 E00245 TOP FL300 MOV E 15KT NC=



MET'MAP, your aeronautical weather chart ! - Copyright ORBIFLY December 2007 - Disclaimer

ORBIFLY MET'MAP TEAM :

Programming & Development : Alexandra Zaïnal
Concept & Development : Baudouin d'Aumeries
Co-Development & Prog : Marc-Olivier Méhu
Technical & hardware support : Manuel Goepfert

Contact : metmap@orbifly.com




SOURCES & CREDITS :

   NOAA